createdAt,value
2019-05-15T00:00:58.715Z,94.40
2019-05-15T00:03:25.664Z,94.40
2019-05-15T00:05:52.865Z,94.40
2019-05-15T00:08:20.045Z,94.30
2019-05-15T00:10:48.464Z,94.30
2019-05-15T00:13:18.336Z,94.40
2019-05-15T00:15:44.966Z,94.40
2019-05-15T00:18:12.160Z,94.40
2019-05-15T00:20:39.742Z,94.40
2019-05-15T00:23:08.534Z,94.30
2019-05-15T00:25:35.906Z,94.10
2019-05-15T00:28:03.100Z,94.20
2019-05-15T00:30:30.276Z,94.20
2019-05-15T00:32:58.860Z,94.30
2019-05-15T00:35:28.578Z,94.10
2019-05-15T00:37:55.280Z,94.20
2019-05-15T00:40:22.492Z,94.30
2019-05-15T00:42:49.700Z,94.40
2019-05-15T00:45:18.642Z,94.30
2019-05-15T00:47:48.485Z,94.50
2019-05-15T00:50:15.252Z,94.30
2019-05-15T00:52:42.552Z,94.40
2019-05-15T00:55:10.804Z,94.50
2019-05-15T00:57:39.226Z,94.40
2019-05-15T01:00:08.228Z,94.30
2019-05-15T01:02:35.684Z,94.40
2019-05-15T01:05:03.294Z,94.60
2019-05-15T01:07:31.532Z,94.70
2019-05-15T01:09:59.238Z,94.80
2019-05-15T01:12:26.436Z,95.10
2019-05-15T01:14:53.641Z,94.80
2019-05-15T01:17:21.028Z,94.60
2019-05-15T01:19:48.716Z,94.80
2019-05-15T01:22:15.904Z,94.70
2019-05-15T01:24:43.988Z,94.70
2019-05-15T01:27:11.688Z,94.70
2019-05-15T01:29:44.699Z,94.60
2019-05-15T01:32:08.412Z,94.70
2019-05-15T01:34:38.431Z,94.80
2019-05-15T01:37:08.396Z,94.90
2019-05-15T01:39:34.883Z,94.90
2019-05-15T01:42:02.493Z,94.80
2019-05-15T01:44:29.699Z,94.70
2019-05-15T01:46:58.982Z,94.50
2019-05-15T01:49:27.899Z,94.60
2019-05-15T01:51:55.064Z,94.50
2019-05-15T01:54:22.556Z,94.60
2019-05-15T01:56:49.846Z,94.70
2019-05-15T01:59:18.928Z,94.60
2019-05-15T02:01:48.447Z,94.70
2019-05-15T02:04:15.256Z,94.50
2019-05-15T02:06:42.451Z,94.90
2019-05-15T02:09:09.846Z,94.50
2019-05-15T02:11:38.283Z,94.50
2019-05-15T02:14:08.346Z,94.40
2019-05-15T02:16:35.657Z,94.30
2019-05-15T02:19:02.864Z,94.50
2019-05-15T02:21:30.044Z,94.40
2019-05-15T02:23:58.760Z,94.30
2019-05-15T02:26:28.147Z,94.40
2019-05-15T02:28:55.212Z,94.20
2019-05-15T02:31:22.411Z,94.20
2019-05-15T02:33:49.915Z,94.10
2019-05-15T02:36:20.620Z,94.10
2019-05-15T02:38:48.708Z,94.20
2019-05-15T02:41:19.282Z,94.20
2019-05-15T02:43:44.990Z,94.40
2019-05-15T02:46:12.173Z,94.30
2019-05-15T02:48:40.911Z,94.10
2019-05-15T02:51:09.719Z,94.20
2019-05-15T02:53:39.590Z,94.10
2019-05-15T02:56:09.346Z,94.20
2019-05-15T02:58:36.084Z,94.30
2019-05-15T03:01:03.262Z,94.00
2019-05-15T03:03:30.441Z,94.10
2019-05-15T03:06:00.192Z,94.30
2019-05-15T03:08:29.534Z,94.10
2019-05-15T03:10:58.967Z,94.10
2019-05-15T03:13:25.133Z,94.40
2019-05-15T03:15:52.417Z,94.30
2019-05-15T03:18:19.737Z,94.10
2019-05-15T03:20:50.177Z,94.10
2019-05-15T03:23:19.514Z,94.00
2019-05-15T03:25:45.205Z,94.10
2019-05-15T03:28:12.412Z,94.20
2019-05-15T03:31:06.675Z,94.10
2019-05-15T03:33:17.432Z,94.10
2019-05-15T03:35:42.718Z,94.00
2019-05-15T03:38:09.298Z,94.00
2019-05-15T03:40:39.368Z,94.10
2019-05-15T03:43:05.228Z,94.20
2019-05-15T03:45:32.425Z,94.20
2019-05-15T03:47:59.744Z,94.30
2019-05-15T03:50:29.014Z,94.20
2019-05-15T03:52:58.656Z,94.30
2019-05-15T03:55:25.172Z,94.30
2019-05-15T03:57:52.372Z,94.10
2019-05-15T04:00:19.812Z,94.10
2019-05-15T04:02:48.835Z,94.40
2019-05-15T04:05:19.667Z,94.50
2019-05-15T04:07:45.645Z,94.50
2019-05-15T04:10:13.238Z,94.40
2019-05-15T04:12:40.958Z,94.70
2019-05-15T04:15:10.026Z,94.70
2019-05-15T04:17:40.094Z,94.60
2019-05-15T04:20:09.827Z,94.70
2019-05-15T04:22:39.968Z,94.60
2019-05-15T04:25:09.782Z,94.60
2019-05-15T04:27:39.113Z,94.50
2019-05-15T04:30:10.151Z,94.30
2019-05-15T04:32:35.844Z,94.50
2019-05-15T04:35:03.792Z,94.40
2019-05-15T04:37:31.170Z,94.60
2019-05-15T04:39:59.790Z,94.70
2019-05-15T04:42:29.898Z,94.80
2019-05-15T04:44:56.270Z,94.80
2019-05-15T04:47:23.557Z,94.70
2019-05-15T04:49:50.809Z,94.80
2019-05-15T04:52:19.481Z,94.60
2019-05-15T04:54:49.314Z,94.60
2019-05-15T04:57:19.162Z,94.70
2019-05-15T04:59:45.317Z,94.70
2019-05-15T05:02:24.204Z,94.80
2019-05-15T05:04:41.641Z,94.60
2019-05-15T05:07:09.714Z,94.60
2019-05-15T05:09:38.972Z,94.80
2019-05-15T05:12:08.410Z,94.70
2019-05-15T05:14:35.286Z,95.00
2019-05-15T05:17:02.477Z,94.80
2019-05-15T05:19:29.703Z,95.00
2019-05-15T05:21:58.531Z,94.90
2019-05-15T05:24:28.039Z,95.00
2019-05-15T05:26:55.276Z,95.10
2019-05-15T05:29:22.516Z,94.90
2019-05-15T05:31:49.731Z,95.00
2019-05-15T05:34:19.204Z,95.20
2019-05-15T05:36:47.987Z,95.40
2019-05-15T05:39:19.222Z,95.40
2019-05-15T05:41:45.824Z,95.20
2019-05-15T05:44:13.040Z,95.30
2019-05-15T05:46:40.422Z,95.60
2019-05-15T05:49:08.107Z,95.70
2019-05-15T05:51:35.632Z,95.90
2019-05-15T05:54:02.845Z,95.60
2019-05-15T05:56:30.012Z,95.70
2019-05-15T05:58:58.608Z,95.70
2019-05-15T06:01:28.240Z,95.90
2019-05-15T06:03:55.504Z,95.60
2019-05-15T06:06:22.820Z,95.80
2019-05-15T06:08:50.414Z,95.70
2019-05-15T06:11:18.451Z,95.90
2019-05-15T06:13:45.841Z,95.70
2019-05-15T06:16:13.072Z,95.80
2019-05-15T06:18:40.393Z,96.10
2019-05-15T06:21:09.100Z,96.00
2019-05-15T06:23:43.155Z,96.10
2019-05-15T06:26:09.087Z,96.20
2019-05-15T06:28:34.965Z,96.10
2019-05-15T06:31:02.201Z,96.10
2019-05-15T06:33:29.425Z,96.30
2019-05-15T06:35:59.069Z,96.60
2019-05-15T06:38:30.624Z,96.50
2019-05-15T06:40:54.878Z,96.60
2019-05-15T06:43:22.144Z,96.20
2019-05-15T06:45:49.442Z,96.60
2019-05-15T06:48:18.395Z,96.50
2019-05-15T06:50:48.596Z,96.70
2019-05-15T06:53:15.198Z,96.50
2019-05-15T06:55:42.584Z,96.50
2019-05-15T06:58:09.788Z,96.40
2019-05-15T07:00:39.121Z,96.40
2019-05-15T07:03:18.112Z,96.30
2019-05-15T07:05:35.300Z,96.40
2019-05-15T07:08:03.190Z,96.40
2019-05-15T07:10:30.488Z,96.40
2019-05-15T07:12:58.482Z,96.40
2019-05-15T07:15:27.844Z,96.30
2019-05-15T07:17:57.859Z,96.20
2019-05-15T07:20:24.589Z,96.00
2019-05-15T07:22:52.133Z,96.10
2019-05-15T07:25:19.505Z,95.90
2019-05-15T07:27:47.853Z,96.00
2019-05-15T07:30:15.748Z,95.70
2019-05-15T07:32:42.964Z,95.40
2019-05-15T07:35:10.762Z,95.40
2019-05-15T07:37:38.835Z,95.60
2019-05-15T07:40:08.399Z,95.50
2019-05-15T07:42:38.335Z,95.40
2019-05-15T07:45:08.272Z,95.40
2019-05-15T07:47:35.385Z,95.40
2019-05-15T07:50:04.040Z,95.20
2019-05-15T07:52:31.382Z,95.20
2019-05-15T07:54:58.625Z,95.20
2019-05-15T07:57:25.959Z,95.00
2019-05-15T07:59:53.376Z,94.50
2019-05-15T08:02:20.649Z,94.50
2019-05-15T08:04:48.250Z,94.90
2019-05-15T08:07:15.708Z,94.60
2019-05-15T08:09:42.924Z,94.40
2019-05-15T08:12:10.121Z,94.70
2019-05-15T08:14:38.743Z,94.70
2019-05-15T08:17:08.520Z,94.70
2019-05-15T08:19:38.199Z,95.10
2019-05-15T08:22:04.545Z,94.40
2019-05-15T08:24:31.945Z,94.50
2019-05-15T08:26:59.207Z,94.90
2019-05-15T08:29:28.658Z,94.70
2019-05-15T08:31:55.495Z,94.90
2019-05-15T08:34:22.700Z,95.00
2019-05-15T08:36:49.930Z,94.80
2019-05-15T08:39:19.078Z,94.30
2019-05-15T08:41:48.294Z,94.30
2019-05-15T08:44:15.399Z,94.40
2019-05-15T08:46:44.300Z,94.50
2019-05-15T08:49:11.720Z,94.40
2019-05-15T08:51:38.945Z,94.30
2019-05-15T08:54:08.355Z,94.20
2019-05-15T08:56:35.547Z,94.30
2019-05-15T08:59:02.872Z,94.50
2019-05-15T09:01:30.084Z,94.50
2019-05-15T09:03:58.165Z,94.50
2019-05-15T09:06:25.724Z,94.90
2019-05-15T09:08:52.934Z,94.10
2019-05-15T09:11:20.164Z,94.20
2019-05-15T09:13:52.714Z,94.30
2019-05-15T09:16:18.527Z,94.40
2019-05-15T09:18:48.349Z,94.50
2019-05-15T09:21:15.289Z,94.10
2019-05-15T09:23:42.637Z,94.30
2019-05-15T09:26:09.849Z,94.20
2019-05-15T09:28:39.013Z,94.40
2019-05-15T09:31:08.375Z,94.40
2019-05-15T09:33:38.416Z,94.30
2019-05-15T09:36:04.889Z,94.60
2019-05-15T09:38:32.197Z,94.30
2019-05-15T09:40:59.597Z,94.40
2019-05-15T09:43:28.546Z,94.60
2019-05-15T09:45:58.102Z,94.80
2019-05-15T09:48:25.384Z,94.60
2019-05-15T09:50:52.726Z,94.70
2019-05-15T09:53:20.045Z,94.90
2019-05-15T09:55:49.431Z,95.20
2019-05-15T09:58:20.236Z,95.30
2019-05-15T10:00:50.865Z,95.70
2019-05-15T10:03:15.289Z,95.50
2019-05-15T10:05:42.553Z,95.50
2019-05-15T10:08:10.280Z,95.80
2019-05-15T10:10:38.065Z,95.60
2019-05-15T10:13:05.651Z,95.80
2019-05-15T10:15:32.886Z,95.70
2019-05-15T10:18:00.312Z,95.80
2019-05-15T10:20:29.102Z,95.70
2019-05-15T10:22:59.037Z,95.60
2019-05-15T10:25:28.171Z,95.70
2019-05-15T10:27:57.851Z,95.60
2019-05-15T10:30:24.694Z,95.70
2019-05-15T10:32:51.901Z,95.90
2019-05-15T10:35:28.286Z,96.10
2019-05-15T10:37:48.922Z,95.80
2019-05-15T10:40:20.149Z,96.00
2019-05-15T10:42:45.990Z,96.20
2019-05-15T10:45:14.108Z,96.00
2019-05-15T10:47:41.304Z,95.80
2019-05-15T10:50:09.098Z,96.00
2019-05-15T10:52:38.213Z,96.10
2019-05-15T10:55:05.808Z,96.50
2019-05-15T10:57:33.037Z,95.70
2019-05-15T11:00:00.339Z,96.20
2019-05-15T11:02:28.991Z,96.30
2019-05-15T11:04:57.886Z,96.10
2019-05-15T11:07:25.333Z,96.00
2019-05-15T11:09:52.536Z,96.10
2019-05-15T11:12:19.879Z,96.10
2019-05-15T11:14:47.105Z,96.10
2019-05-15T11:17:14.305Z,96.00
2019-05-15T11:19:41.612Z,96.40
2019-05-15T11:22:09.164Z,96.10
2019-05-15T11:24:38.506Z,96.00
2019-05-15T11:27:09.724Z,96.30
2019-05-15T11:29:34.840Z,96.20
2019-05-15T11:32:02.077Z,96.30
2019-05-15T11:34:29.283Z,96.30
2019-05-15T11:36:59.116Z,96.40
2019-05-15T11:39:25.693Z,96.60
2019-05-15T11:41:52.978Z,96.50
2019-05-15T11:44:20.208Z,96.50
2019-05-15T11:46:49.609Z,96.60
2019-05-15T11:49:18.242Z,96.90
2019-05-15T11:51:45.612Z,96.90
2019-05-15T11:54:12.827Z,97.10
2019-05-15T11:56:40.021Z,97.10
2019-05-15T11:59:08.515Z,97.10
2019-05-15T12:01:38.144Z,97.00
2019-05-15T12:04:05.412Z,97.20
2019-05-15T12:06:32.697Z,97.20
2019-05-15T12:09:00.064Z,97.10
2019-05-15T12:11:36.425Z,96.90
2019-05-15T12:13:56.420Z,97.10
2019-05-15T12:16:23.631Z,97.00
2019-05-15T12:18:50.839Z,97.00
2019-05-15T12:21:19.960Z,97.20
2019-05-15T12:23:48.788Z,97.40
2019-05-15T12:26:16.292Z,97.30
2019-05-15T12:28:43.610Z,97.50
2019-05-15T12:31:10.918Z,97.20
2019-05-15T12:33:38.610Z,97.30
2019-05-15T12:36:10.206Z,97.30
2019-05-15T12:38:35.625Z,97.40
2019-05-15T13:00:57.727Z,97.90
2019-05-15T13:03:25.017Z,97.70
2019-05-15T13:05:52.233Z,97.80
2019-05-15T13:08:19.573Z,97.70
2019-05-15T13:10:48.774Z,97.60
2019-05-15T13:13:16.011Z,97.50
2019-05-15T13:15:43.219Z,97.50
2019-05-15T13:18:13.841Z,97.60
2019-05-15T13:20:39.716Z,97.60
2019-05-15T13:23:07.212Z,97.50
2019-05-15T13:25:34.688Z,97.50
2019-05-15T13:28:01.973Z,97.50
2019-05-15T13:30:30.319Z,97.70
2019-05-15T13:32:58.766Z,97.70
2019-05-15T13:35:28.342Z,97.70
2019-05-15T13:37:55.239Z,97.90
2019-05-15T13:40:34.234Z,97.80
2019-05-15T13:42:51.896Z,97.90
2019-05-15T13:45:19.481Z,97.60
2019-05-15T13:47:46.794Z,97.70
2019-05-15T13:50:14.292Z,97.50
2019-05-15T13:52:41.536Z,97.40
2019-05-15T13:55:08.995Z,97.30
2019-05-15T13:57:38.285Z,97.30
2019-05-15T14:00:08.666Z,97.40
2019-05-15T14:02:38.408Z,97.50
2019-05-15T14:05:08.993Z,97.50
2019-05-15T14:07:47.959Z,97.70
2019-05-15T14:10:09.234Z,97.70
2019-05-15T14:12:35.748Z,97.60
2019-05-15T14:15:03.479Z,97.70
2019-05-15T14:17:30.675Z,97.70
2019-05-15T14:19:58.038Z,97.70
2019-05-15T14:22:25.372Z,97.60
2019-05-15T14:24:52.568Z,97.60
2019-05-15T14:27:19.773Z,97.70
2019-05-15T14:29:48.879Z,97.70
2019-05-15T14:32:22.738Z,97.60
2019-05-15T14:34:47.733Z,97.60
2019-05-15T14:37:14.372Z,97.70
2019-05-15T14:39:41.555Z,97.50
2019-05-15T14:42:09.211Z,97.60
2019-05-15T14:44:38.695Z,97.60
2019-05-15T14:47:05.668Z,97.70
2019-05-15T14:49:35.046Z,97.60
2019-05-15T14:52:08.399Z,97.80
2019-05-15T14:54:31.084Z,97.80
2019-05-15T14:56:58.292Z,97.70
2019-05-15T14:59:25.517Z,97.90
2019-05-15T15:01:52.713Z,97.70
2019-05-15T15:04:20.189Z,97.80
2019-05-15T15:06:48.680Z,97.70
2019-05-15T15:09:16.213Z,97.70
2019-05-15T15:11:43.412Z,97.90
2019-05-15T15:14:10.605Z,97.90
2019-05-15T15:16:38.520Z,97.90
2019-05-15T15:19:05.893Z,97.90
2019-05-15T15:21:33.385Z,98.10
2019-05-15T15:24:00.565Z,97.90
2019-05-15T15:26:27.785Z,97.90
2019-05-15T15:28:54.969Z,98.00
2019-05-15T15:31:22.206Z,98.00
2019-05-15T15:33:49.393Z,98.10
2019-05-15T15:36:16.597Z,98.30
2019-05-15T15:38:44.271Z,98.00
2019-05-15T15:41:11.596Z,98.00
2019-05-15T15:43:38.880Z,98.20
2019-05-15T15:46:08.435Z,98.10
2019-05-15T15:48:35.382Z,98.10
2019-05-15T15:51:02.643Z,98.20
2019-05-15T15:53:29.909Z,98.20
2019-05-15T15:55:57.086Z,98.30
2019-05-15T15:58:24.308Z,98.10
2019-05-15T16:00:51.520Z,98.20
2019-05-15T16:03:19.360Z,98.30
2019-05-15T16:05:48.812Z,98.20
2019-05-15T16:08:15.884Z,98.20
2019-05-15T16:10:43.068Z,98.30
2019-05-15T16:13:10.253Z,98.40
2019-05-15T16:15:38.499Z,98.40
2019-05-15T16:18:08.631Z,98.20
2019-05-15T16:20:39.291Z,98.30
2019-05-15T16:23:08.200Z,98.40
2019-05-15T16:25:35.112Z,98.30
2019-05-15T16:28:02.300Z,98.30
2019-05-15T16:30:29.817Z,98.30
2019-05-15T16:32:58.489Z,98.30
2019-05-15T16:35:25.971Z,98.40
2019-05-15T16:37:53.184Z,98.40
2019-05-15T16:40:20.413Z,98.40
2019-05-15T16:42:48.838Z,98.70
2019-05-15T16:45:16.776Z,98.40
2019-05-15T16:47:43.980Z,98.50
2019-05-15T16:50:11.604Z,98.50
2019-05-15T16:52:39.230Z,98.40
2019-05-15T16:55:09.201Z,98.50
2019-05-15T16:57:38.636Z,98.50
2019-05-15T17:00:09.526Z,98.70
2019-05-15T17:02:39.143Z,98.50
2019-05-15T17:05:07.464Z,98.50
2019-05-15T17:07:34.683Z,98.50
2019-05-15T17:10:02.011Z,98.50
2019-05-15T17:12:29.204Z,98.50
2019-05-15T17:14:58.256Z,98.60
2019-05-15T17:17:25.490Z,98.60
2019-05-15T17:19:52.697Z,98.60
2019-05-15T17:22:19.899Z,98.60
2019-05-15T17:24:48.862Z,98.60
2019-05-15T17:27:18.224Z,98.60
2019-05-15T17:29:45.401Z,98.70
2019-05-15T17:32:12.584Z,98.70
2019-05-15T17:34:39.811Z,98.70
2019-05-15T17:37:07.121Z,98.60
2019-05-15T17:39:37.865Z,98.60
2019-05-15T17:42:03.425Z,98.70
2019-05-15T17:44:30.656Z,98.70
2019-05-15T17:46:58.467Z,98.60
2019-05-15T17:49:27.902Z,99.10
2019-05-15T17:51:54.953Z,99.00
2019-05-15T17:54:22.167Z,98.70
2019-05-15T17:56:49.464Z,98.70
2019-05-15T17:59:17.790Z,98.80
2019-05-15T18:01:45.162Z,98.80
2019-05-15T18:04:12.264Z,98.90
2019-05-15T18:06:40.032Z,98.80
2019-05-15T18:09:08.753Z,98.90
2019-05-15T18:11:38.199Z,98.90
2019-05-15T18:14:05.702Z,98.80
2019-05-15T18:16:33.056Z,98.90
2019-05-15T18:19:00.661Z,98.90
2019-05-15T18:21:29.103Z,99.10
2019-05-15T18:23:58.498Z,99.00
2019-05-15T18:26:25.467Z,98.90
2019-05-15T18:28:53.409Z,98.90
2019-05-15T18:31:20.646Z,99.00
2019-05-15T18:33:53.717Z,99.00
2019-05-15T18:36:16.971Z,99.00
2019-05-15T18:38:44.284Z,99.00
2019-05-15T18:41:11.484Z,99.00
2019-05-15T18:43:38.724Z,99.00
2019-05-15T18:46:05.940Z,99.10
2019-05-15T18:48:33.610Z,99.20
2019-05-15T18:51:01.277Z,99.10
2019-05-15T18:53:28.809Z,98.90
2019-05-15T18:55:58.364Z,99.00
2019-05-15T18:58:26.124Z,99.00
2019-05-15T19:00:53.921Z,98.90
2019-05-15T19:03:22.842Z,98.90
2019-05-15T19:05:50.495Z,99.00
2019-05-15T19:08:18.785Z,99.00
2019-05-15T19:10:47.740Z,98.90
2019-05-15T19:13:15.573Z,99.00
2019-05-15T19:15:43.073Z,99.00
2019-05-15T19:18:10.323Z,98.90
2019-05-15T19:20:38.919Z,98.90
2019-05-15T19:23:08.025Z,98.90
2019-05-15T19:25:35.552Z,99.10
2019-05-15T19:28:02.777Z,98.90
2019-05-15T19:30:30.038Z,98.90
2019-05-15T19:32:58.512Z,99.00
2019-05-15T19:35:28.034Z,98.90
2019-05-15T19:37:58.210Z,98.90
2019-05-15T19:40:24.626Z,98.80
2019-05-15T19:42:51.948Z,99.00
2019-05-15T19:45:19.241Z,98.90
2019-05-15T19:47:47.818Z,99.00
2019-05-15T19:50:17.921Z,98.80
2019-05-15T19:52:45.007Z,99.10
2019-05-15T19:55:12.676Z,98.80
2019-05-15T19:57:40.133Z,98.90
2019-05-15T20:00:08.603Z,99.00
2019-05-15T20:02:38.062Z,99.00
2019-05-15T20:05:05.549Z,98.80
2019-05-15T20:07:32.784Z,98.90
2019-05-15T20:10:00.384Z,98.80
2019-05-15T20:12:28.022Z,98.90
2019-05-15T20:14:55.436Z,98.80
2019-05-15T20:17:22.648Z,98.90
2019-05-15T20:19:49.850Z,98.90
2019-05-15T20:22:18.853Z,98.80
2019-05-15T20:24:46.188Z,98.80
2019-05-15T20:27:13.512Z,98.80
2019-05-15T20:29:41.002Z,98.80
2019-05-15T20:32:08.333Z,98.80
2019-05-15T20:34:37.810Z,98.70
2019-05-15T20:37:05.048Z,98.80
2019-05-15T20:39:32.316Z,98.70
2019-05-15T20:41:59.521Z,98.80
2019-05-15T20:44:26.800Z,98.90
2019-05-15T20:46:54.136Z,98.70
2019-05-15T20:49:21.409Z,98.80
2019-05-15T20:51:48.989Z,98.90
2019-05-15T20:54:16.529Z,98.90
2019-05-15T20:56:43.925Z,99.00
2019-05-15T20:59:11.113Z,99.00
2019-05-15T21:01:38.310Z,99.10
2019-05-15T21:04:18.707Z,99.10
2019-05-15T21:06:34.872Z,99.10
2019-05-15T21:09:02.165Z,99.40
2019-05-15T21:11:29.843Z,99.20
2019-05-15T21:13:58.154Z,99.10
2019-05-15T21:16:27.812Z,99.20
2019-05-15T21:18:54.741Z,99.20
2019-05-15T21:21:22.053Z,99.30
2019-05-15T21:23:49.305Z,99.20
2019-05-15T21:26:18.769Z,99.20
2019-05-15T21:28:45.962Z,99.40
2019-05-15T21:31:14.804Z,99.30
2019-05-15T21:33:42.033Z,99.30
2019-05-15T21:36:09.430Z,99.20
2019-05-15T21:38:38.715Z,99.30
2019-05-15T21:41:07.851Z,99.20
2019-05-15T21:43:34.864Z,99.20
2019-05-15T21:46:02.081Z,99.30
2019-05-15T21:48:30.804Z,99.30
2019-05-15T21:50:58.011Z,99.20
2019-05-15T21:53:25.469Z,99.00
2019-05-15T21:55:52.657Z,99.10
2019-05-15T21:58:19.860Z,99.10
2019-05-15T22:00:51.549Z,99.20
2019-05-15T22:03:20.748Z,99.20
2019-05-15T22:05:48.786Z,99.20
2019-05-15T22:08:18.336Z,99.20
2019-05-15T22:10:48.050Z,99.20
2019-05-15T22:13:15.085Z,99.20
2019-05-15T22:15:42.624Z,99.40
2019-05-15T22:18:11.481Z,99.20
2019-05-15T22:20:39.139Z,99.20
2019-05-15T22:23:08.203Z,99.20
2019-05-15T22:25:35.620Z,99.30
2019-05-15T22:28:02.936Z,99.30
2019-05-15T22:30:30.490Z,99.20
2019-05-15T22:32:58.744Z,99.20
2019-05-15T22:35:29.100Z,99.30
2019-05-15T22:37:55.441Z,99.30
2019-05-15T22:40:22.640Z,99.30
2019-05-15T22:42:49.868Z,99.10
2019-05-15T22:45:18.642Z,99.20
2019-05-15T22:47:48.197Z,99.20
2019-05-15T22:50:18.577Z,99.20
2019-05-15T22:52:45.249Z,99.10
2019-05-15T22:55:12.636Z,99.10
2019-05-15T22:57:39.857Z,99.00
2019-05-15T23:00:08.743Z,99.10
2019-05-15T23:02:36.268Z,99.00
2019-05-15T23:05:04.100Z,99.10
2019-05-15T23:07:31.428Z,98.90
2019-05-15T23:09:58.697Z,98.90
2019-05-15T23:12:25.904Z,98.80
2019-05-15T23:14:53.156Z,98.80
2019-05-15T23:17:20.806Z,98.90
2019-05-15T23:19:48.599Z,98.90
2019-05-15T23:22:16.110Z,99.00
2019-05-15T23:24:43.334Z,98.90
2019-05-15T23:27:10.541Z,99.00
2019-05-15T23:29:38.470Z,99.00
2019-05-15T23:32:07.837Z,99.00
2019-05-15T23:34:35.325Z,99.00
2019-05-15T23:37:02.520Z,98.90
2019-05-15T23:39:29.751Z,98.80
2019-05-15T23:41:58.466Z,98.90
2019-05-15T23:44:27.660Z,98.90
2019-05-15T23:46:54.972Z,98.90
2019-05-15T23:49:22.164Z,98.90
2019-05-15T23:51:49.493Z,98.80
2019-05-15T23:54:18.536Z,98.80
2019-05-15T23:56:45.933Z,98.90
2019-05-15T23:59:13.183Z,98.80
